Riegelsville, Pennsylvania
Current Conditions -  °F | °C
As of 1:51 PM on Monday 22 Dec 2014 (Local Time) from KABE Reporting Station
Overcast Overcast  
Wind Chill: 41°   Ceiling: 10000
Heat Index: 41°   Visibility: 9mi
Dew Point: 31°   Wind: 3mph
Humidity: 67%   Direction: NA
Pressure: 30.22"   Gusts: NA
Location:  40.59°N, 75.2°W
Report Text: KABE 221851Z VRB03KT 9SM SCT023 OVC100 05/M01 A3022 RMK AO2 SLP235 T00501006
Loading
Personal Weather Stations






























Interactive Weather Map New forecast layout! Learn more

10-Day Weather Forecast

Advertisements
Track Severe Weather on mobile